Time;durP1;ratioP1;P1;durP2;ratioP2;P2;SDS_P1;SDS_P2;PMS_P1;PMS_P2;Temp;Humidity;BMP_temperature;BMP_pressure;BME280_temperature;BME280_humidity;BME280_pressure;Samples;Min_cycle;Max_cycle;Signal;HPM_P1;HPM_P2
2022/11/14 00:05:28;;;;;;;65.72;37.90;;;;;;;;;;5070221;28;20191;-96
2022/11/14 00:14:05;;;;;;;61.50;37.17;;;;;;;;;;5069486;28;20039;-95
2022/11/14 00:19:07;;;;;;;116.60;52.58;;;;;;;;;;5379627;23;20049;-94
2022/11/14 00:24:31;;;;;;;76.85;42.63;;;;;;;;;;5726494;23;20053;-95
2022/11/14 00:27:00;;;;;;;70.95;42.30;;;;;;;;;;5057269;28;20013;-96
2022/11/14 00:29:38;;;;;;;92.93;44.30;;;;;;;;;;5291827;23;21061;-96
2022/11/14 00:32:39;;;;;;;58.70;36.55;;;;;;;;;;5048920;28;20017;-96
2022/11/14 00:35:23;;;;;;;;;;;;;;;;;;;;;
2022/11/14 00:40:26;;;;;;;81.90;45.53;;;;;;;;;;5658530;22;21071;-96
2022/11/14 00:51:02;;;;;;;101.25;51.80;;;;;;;;;;5468743;22;20052;-96
2022/11/14 00:56:07;;;;;;;100.32;48.80;;;;;;;;;;5367481;22;20064;-96
2022/11/14 01:01:27;;;;;;;96.13;47.47;;;;;;;;;;5066951;28;20052;-96
2022/11/14 01:03:56;;;;;;;88.47;45.80;;;;;;;;;;5420220;22;20025;-96
2022/11/14 01:09:22;;;;;;;84.38;45.45;;;;;;;;;;5232254;22;20115;-95
2022/11/14 01:14:24;;;;;;;130.48;60.67;;;;;;;;;;5104402;22;20049;-94
2022/11/14 01:16:50;;;;;;;118.88;58.72;;;;;;;;;;5071851;28;20031;-95
2022/11/14 01:19:40;;;;;;;76.43;44.70;;;;;;;;;;5067774;28;20032;-94
2022/11/14 01:22:10;;;;;;;81.72;46.05;;;;;;;;;;5075227;28;20013;-96
2022/11/14 01:24:44;;;;;;;110.28;56.03;;;;;;;;;;5065813;28;20131;-96
2022/11/14 01:35:21;;;;;;;81.20;46.38;;;;;;;;;;5169199;22;20072;-94
2022/11/14 01:37:48;;;;;;;74.18;43.83;;;;;;;;;;5069023;28;20025;-94
2022/11/14 01:40:14;;;;;;;87.43;48.30;;;;;;;;;;5069963;28;20020;-96
2022/11/14 01:43:08;;;;;;;75.07;44.53;;;;;;;;;;5072889;28;20092;-96
2022/11/14 01:45:34;;;;;;;;;;;;;;;;;;5070682;28;20025;-96
2022/11/14 01:51:01;;;;;;;80.22;45.30;;;;;;;;;;5128740;22;20113;-96
2022/11/14 01:59:40;;;;;;;106.97;53.95;;;;;;;;;;5072020;28;20039;-94
2022/11/14 02:02:35;;;;;;;145.15;72.97;;;;;;;;;;5051607;28;20021;-96
2022/11/14 02:19:20;;;;;;;98.55;56.25;;;;;;;;;;5010185;28;20490;-95
2022/11/14 02:25:16;;;;;;;124.18;65.35;;;;;;;;;;5091540;28;20067;-96
2022/11/14 02:36:43;;;;;;;91.85;51.55;;;;;;;;;;5106891;22;20059;-95
2022/11/14 02:39:10;;;;;;;73.95;44.50;;;;;;;;;;5089439;23;20041;-95
2022/11/14 02:44:40;;;;;;;85.93;46.78;;;;;;;;;;5633447;22;20851;-96
2022/11/14 02:47:25;;;;;;;78.85;43.50;;;;;;;;;;5075571;28;20012;-96
2022/11/14 02:55:23;;;;;;;67.10;38.97;;;;;;;;;;5159070;22;20059;-95
2022/11/14 03:00:59;;;;;;;89.90;46.67;;;;;;;;;;5339806;22;20028;-95
2022/11/14 03:03:25;;;;;;;49.70;32.88;;;;;;;;;;5074281;28;20080;-95
2022/11/14 03:06:13;;;;;;;62.28;38.10;;;;;;;;;;5177450;23;21116;-96
2022/11/14 03:17:51;;;;;;;54.60;33.35;;;;;;;;;;5057920;28;20116;-96
2022/11/14 03:20:17;;;;;;;48.45;32.17;;;;;;;;;;5081202;28;20045;-96
2022/11/14 03:22:58;;;;;;;64.68;39.83;;;;;;;;;;5040805;28;20029;-96
2022/11/14 03:25:30;;;;;;;55.47;35.45;;;;;;;;;;5041049;28;20052;-96
2022/11/14 03:33:04;;;;;;;63.25;38.83;;;;;;;;;;4796434;23;19746384;-96
2022/11/14 03:41:43;;;;;;;46.67;30.08;;;;;;;;;;5051440;28;20101;-95
2022/11/14 03:46:42;;;;;;;48.42;32.80;;;;;;;;;;5068938;28;20037;-96
2022/11/14 03:51:53;;;;;;;44.13;30.42;;;;;;;;;;5050340;28;20067;-96
2022/11/14 03:57:11;;;;;;;49.13;32.38;;;;;;;;;;5139421;22;20046;-96
2022/11/14 03:59:38;;;;;;;45.83;29.20;;;;;;;;;;5072024;28;20021;-93
2022/11/14 04:05:40;;;;;;;44.25;28.92;;;;;;;;;;5084648;28;20059;-96
2022/11/14 04:08:34;;;;;;;44.42;29.60;;;;;;;;;;5065908;28;20043;-96
2022/11/14 04:11:07;;;;;;;42.63;28.65;;;;;;;;;;5066496;28;20029;-94
2022/11/14 04:13:45;;;;;;;43.55;27.23;;;;;;;;;;5066227;28;20552;-96
2022/11/14 04:16:24;;;;;;;41.28;28.90;;;;;;;;;;5064520;28;20029;-96
2022/11/14 04:19:19;;;;;;;44.70;30.90;;;;;;;;;;5062113;28;20029;-96
2022/11/14 04:21:57;;;;;;;40.47;27.48;;;;;;;;;;5061257;28;20036;-96
2022/11/14 04:24:39;;;;;;;41.03;28.98;;;;;;;;;;5061549;28;20032;-95
2022/11/14 04:27:35;;;;;;;37.95;27.67;;;;;;;;;;5067779;28;20035;-95
2022/11/14 04:30:01;;;;;;;38.33;26.83;;;;;;;;;;5063931;28;20040;-93
2022/11/14 04:32:50;;;;;;;43.20;28.05;;;;;;;;;;5069500;28;20025;-95
2022/11/14 04:35:16;;;;;;;40.00;27.90;;;;;;;;;;5067350;28;20036;-93
2022/11/14 04:38:15;;;;;;;39.85;27.17;;;;;;;;;;5065632;28;20028;-96
2022/11/14 04:41:01;;;;;;;39.05;26.98;;;;;;;;;;5009575;28;20047;-95
2022/11/14 04:47:10;;;;;;;42.58;27.10;;;;;;;;;;5001982;28;20042;-94
2022/11/14 04:49:39;;;;;;;42.17;26.65;;;;;;;;;;4991227;28;20138;-95
2022/11/14 04:53:10;;;;;;;39.33;26.38;;;;;;;;;;4987243;28;20113;-95
2022/11/14 04:55:17;;;;;;;57.50;36.00;;;;;;;;;;4974367;28;20130;-94
2022/11/14 05:04:36;;;;;;;37.65;25.65;;;;;;;;;;5054669;28;20091;-96
2022/11/14 05:07:03;;;;;;;40.90;26.05;;;;;;;;;;5031719;28;20128;-94
2022/11/14 05:13:18;;;;;;;37.67;25.35;;;;;;;;;;5018808;28;20036;-96
2022/11/14 05:19:25;;;;;;;39.28;26.48;;;;;;;;;;5009944;28;20030;-96
2022/11/14 05:22:00;;;;;;;39.65;26.92;;;;;;;;;;4990094;28;20095;-96
2022/11/14 05:24:27;;;;;;;34.40;24.48;;;;;;;;;;5009762;28;20232;-95
2022/11/14 05:27:03;;;;;;;39.35;27.17;;;;;;;;;;5008599;28;20030;-96
2022/11/14 05:29:49;;;;;;;44.92;29.40;;;;;;;;;;5007131;28;20034;-96
2022/11/14 05:32:16;;;;;;;48.88;31.52;;;;;;;;;;5007822;28;20069;-94
2022/11/14 05:38:03;;;;;;;52.38;30.65;;;;;;;;;;5019216;28;20022;-96
2022/11/14 05:40:29;;;;;;;39.65;26.92;;;;;;;;;;5021808;28;20041;-95
2022/11/14 05:42:55;;;;;;;36.85;26.10;;;;;;;;;;5004689;28;20026;-94
2022/11/14 05:45:42;;;;;;;36.85;24.08;;;;;;;;;;5004324;28;20522;-96
2022/11/14 05:48:08;;;;;;;43.15;28.33;;;;;;;;;;5005414;28;20414;-95
2022/11/14 05:50:34;;;;;;;40.95;26.55;;;;;;;;;;5022326;28;20029;-94
2022/11/14 05:53:23;;;;;;;37.88;25.00;;;;;;;;;;5061647;28;20021;-93
2022/11/14 05:55:49;;;;;;;35.40;24.08;;;;;;;;;;5059090;28;20048;-93
2022/11/14 05:58:15;;;;;;;47.38;30.13;;;;;;;;;;5059174;28;20024;-91
2022/11/14 06:00:48;;;;;;;43.42;29.75;;;;;;;;;;5059254;28;20071;-95
2022/11/14 06:03:14;;;;;;;44.33;30.08;;;;;;;;;;5059867;28;20101;-92
2022/11/14 06:05:40;;;;;;;36.75;24.10;;;;;;;;;;5059179;28;20039;-93
2022/11/14 06:08:06;;;;;;;37.22;23.65;;;;;;;;;;5060459;28;20489;-93
2022/11/14 06:10:49;;;;;;;;;;;;;;;;;;;;;
2022/11/14 06:13:15;;;;;;;35.72;24.25;;;;;;;;;;5061119;28;20031;-93
2022/11/14 06:15:47;;;;;;;45.67;30.10;;;;;;;;;;5058082;28;20425;-90
2022/11/14 06:18:29;;;;;;;50.03;32.88;;;;;;;;;;5058800;28;20029;-90
2022/11/14 06:21:20;;;;;;;36.05;23.58;;;;;;;;;;5051624;28;20025;-91
2022/11/14 06:33:34;;;;;;;37.00;24.58;;;;;;;;;;5059745;28;20032;-91
2022/11/14 06:36:07;;;;;;;34.38;25.27;;;;;;;;;;5063933;28;20040;-89
2022/11/14 06:38:37;;;;;;;34.50;23.92;;;;;;;;;;5046407;28;20030;-90
2022/11/14 06:41:08;;;;;;;39.33;26.48;;;;;;;;;;5042880;28;20483;-89
2022/11/14 06:49:55;;;;;;;33.17;22.00;;;;;;;;;;5059297;28;20032;-93
2022/11/14 06:52:31;;;;;;;;;;;;;;;;;;;;;
2022/11/14 06:55:20;;;;;;;34.47;25.02;;;;;;;;;;5058796;28;20114;-95
2022/11/14 06:57:52;;;;;;;31.88;22.30;;;;;;;;;;5059210;28;20048;-92
2022/11/14 07:00:24;;;;;;;28.63;21.20;;;;;;;;;;5063129;28;20060;-96
2022/11/14 07:02:50;;;;;;;29.55;21.80;;;;;;;;;;5050181;28;20051;-90
2022/11/14 07:05:16;;;;;;;28.70;21.05;;;;;;;;;;5074949;28;20043;-88
2022/11/14 07:07:42;;;;;;;31.95;21.67;;;;;;;;;;5075379;28;20031;-92
2022/11/14 07:10:17;;;;;;;29.52;21.02;;;;;;;;;;5078475;28;20032;-96
2022/11/14 07:12:46;;;;;;;26.38;20.58;;;;;;;;;;5078361;28;20040;-93
2022/11/14 07:15:12;;;;;;;27.83;20.70;;;;;;;;;;5072421;28;20021;-93
2022/11/14 07:17:38;;;;;;;32.40;23.42;;;;;;;;;;5062702;28;20119;-93
2022/11/14 07:20:07;;;;;;;25.27;20.10;;;;;;;;;;5075689;28;20029;-95
2022/11/14 07:22:33;;;;;;;26.15;20.70;;;;;;;;;;5074678;28;20024;-92
2022/11/14 07:24:59;;;;;;;23.88;18.50;;;;;;;;;;5075014;28;20037;-90
2022/11/14 07:27:25;;;;;;;26.20;20.52;;;;;;;;;;5058713;28;20024;-92
2022/11/14 07:29:51;;;;;;;24.75;19.45;;;;;;;;;;5050279;28;20021;-89
2022/11/14 07:32:17;;;;;;;23.00;17.83;;;;;;;;;;5037973;28;20075;-92
2022/11/14 07:34:43;;;;;;;22.85;19.23;;;;;;;;;;5038148;28;20432;-92
2022/11/14 07:37:19;;;;;;;22.23;17.73;;;;;;;;;;5057276;28;20020;-92
2022/11/14 07:39:45;;;;;;;28.88;22.42;;;;;;;;;;5078535;28;20099;-93
2022/11/14 07:42:11;;;;;;;27.15;23.92;;;;;;;;;;5076100;28;20050;-94
2022/11/14 07:44:37;;;;;;;30.80;22.92;;;;;;;;;;5077657;28;20040;-91
2022/11/14 07:47:03;;;;;;;27.45;22.40;;;;;;;;;;5061739;28;20449;-91
2022/11/14 07:49:29;;;;;;;30.10;23.80;;;;;;;;;;5056992;28;20063;-91
2022/11/14 07:51:59;;;;;;;24.02;19.50;;;;;;;;;;5057379;28;20032;-91
2022/11/14 07:54:25;;;;;;;24.08;18.25;;;;;;;;;;5057868;28;20603;-90
2022/11/14 07:56:51;;;;;;;26.80;21.27;;;;;;;;;;5054345;28;20124;-91
2022/11/14 07:59:17;;;;;;;23.42;18.42;;;;;;;;;;5054266;28;20048;-93
2022/11/14 08:01:43;;;;;;;31.58;24.08;;;;;;;;;;5054282;28;20021;-90
2022/11/14 08:04:10;;;;;;;31.98;25.08;;;;;;;;;;5054678;28;20029;-91
2022/11/14 16:08:51;;;;;;;34.08;19.10;;;;;;;;;;5098817;22;20049;-95
2022/11/14 16:11:25;;;;;;;31.60;19.98;;;;;;;;;;5057018;28;20029;-95
2022/11/14 16:13:51;;;;;;;33.85;20.77;;;;;;;;;;5057511;28;20024;-93
2022/11/14 16:16:17;;;;;;;30.73;18.08;;;;;;;;;;5059855;28;20039;-95
2022/11/14 16:18:44;;;;;;;41.63;22.33;;;;;;;;;;5213967;22;20501;-94
2022/11/14 16:23:54;;;;;;;31.75;17.45;;;;;;;;;;5223011;22;20406;-96
2022/11/14 16:26:21;;;;;;;31.00;17.98;;;;;;;;;;5154633;23;20074;-96
2022/11/14 16:28:47;;;;;;;34.90;22.25;;;;;;;;;;5200189;22;20489;-94
2022/11/14 16:31:13;;;;;;;40.90;22.45;;;;;;;;;;5147892;22;20053;-94
2022/11/14 16:33:39;;;;;;;32.58;19.75;;;;;;;;;;5083768;22;20045;-93
2022/11/14 16:38:41;;;;;;;33.63;20.00;;;;;;;;;;5102845;22;20382;-95
2022/11/14 16:41:08;;;;;;;37.13;21.15;;;;;;;;;;5204129;22;20051;-95
2022/11/14 16:43:35;;;;;;;32.20;20.17;;;;;;;;;;5329435;22;20102;-96
2022/11/14 16:51:22;;;;;;;37.80;21.67;;;;;;;;;;5087421;23;20056;-95
2022/11/14 16:53:48;;;;;;;35.50;21.00;;;;;;;;;;5202014;22;20077;-95
2022/11/14 16:56:14;;;;;;;35.67;21.50;;;;;;;;;;5203755;23;20080;-94
2022/11/14 16:58:41;;;;;;;43.08;24.55;;;;;;;;;;5246444;22;20136;-96
2022/11/14 17:01:08;;;;;;;31.08;19.80;;;;;;;;;;5466142;22;20059;-94
2022/11/14 17:06:09;;;;;;;32.45;20.33;;;;;;;;;;5038441;28;20281;-94
2022/11/14 17:08:36;;;;;;;37.88;21.15;;;;;;;;;;5041321;28;20021;-91
2022/11/14 17:11:21;;;;;;;35.40;21.73;;;;;;;;;;5036532;28;20079;-94
2022/11/14 17:13:49;;;;;;;36.78;22.90;;;;;;;;;;5040034;28;20025;-95
2022/11/14 17:19:29;;;;;;;;;;;;;;;;;;;;;
2022/11/14 17:21:56;;;;;;;41.70;22.88;;;;;;;;;;5006181;28;20128;-96
2022/11/14 17:24:31;;;;;;;42.20;23.92;;;;;;;;;;5037456;28;20061;-93
2022/11/14 17:30:36;;;;;;;38.67;22.65;;;;;;;;;;5501858;22;20016;-96
2022/11/14 17:33:20;;;;;;;43.72;24.25;;;;;;;;;;5062818;28;20028;-96
2022/11/14 17:35:46;;;;;;;43.97;25.50;;;;;;;;;;5057278;28;20469;-95
2022/11/14 17:38:13;;;;;;;41.92;23.98;;;;;;;;;;5059486;28;20028;-94
2022/11/14 17:40:39;;;;;;;45.65;23.60;;;;;;;;;;5103234;22;20004;-92
2022/11/14 17:43:05;;;;;;;55.10;28.30;;;;;;;;;;5059784;28;20059;-93
2022/11/14 17:45:53;;;;;;;53.90;28.77;;;;;;;;;;5060544;28;20028;-94
2022/11/14 17:48:28;;;;;;;45.47;25.17;;;;;;;;;;5320283;23;20084;-95
2022/11/14 17:50:55;;;;;;;60.20;30.70;;;;;;;;;;5053862;28;20028;-96
2022/11/14 17:56:06;;;;;;;46.40;23.77;;;;;;;;;;5222674;22;20068;-96
2022/11/14 17:58:36;;;;;;;44.15;25.05;;;;;;;;;;5050193;28;20024;-96
2022/11/14 18:01:02;;;;;;;53.15;28.80;;;;;;;;;;5043114;28;20029;-93
2022/11/14 18:03:28;;;;;;;62.78;33.50;;;;;;;;;;5037113;28;20025;-94
2022/11/14 18:06:04;;;;;;;64.43;34.58;;;;;;;;;;5040234;28;20037;-96
2022/11/14 18:08:30;;;;;;;56.75;31.40;;;;;;;;;;5041594;28;20501;-95
2022/11/14 18:11:02;;;;;;;54.17;29.75;;;;;;;;;;5038781;28;20432;-96
2022/11/14 18:13:28;;;;;;;64.53;32.25;;;;;;;;;;5044099;28;20108;-92
2022/11/14 18:15:54;;;;;;;56.10;29.20;;;;;;;;;;5038360;28;20494;-92
2022/11/14 18:18:20;;;;;;;49.42;27.48;;;;;;;;;;5039274;28;20009;-92
2022/11/14 18:20:55;;;;;;;73.78;36.72;;;;;;;;;;5046983;28;20044;-94
2022/11/14 18:23:25;;;;;;;60.03;31.83;;;;;;;;;;5321051;23;20075;-95
2022/11/14 18:26:00;;;;;;;50.15;29.33;;;;;;;;;;5062527;28;20462;-94
2022/11/14 18:28:36;;;;;;;52.17;29.48;;;;;;;;;;5057109;28;20031;-96
2022/11/14 18:41:27;;;;;;;45.30;26.63;;;;;;;;;;5044976;28;20105;-93
2022/11/14 18:43:57;;;;;;;42.60;26.65;;;;;;;;;;5038438;28;20037;-93
2022/11/14 18:52:08;;;;;;;44.58;25.80;;;;;;;;;;5041440;23;20266;-91
2022/11/14 19:00:43;;;;;;;44.10;26.93;;;;;;;;;;5411283;22;20096;-91
2022/11/14 19:03:34;;;;;;;78.70;42.90;;;;;;;;;;5039834;28;20018;-90
2022/11/14 19:06:04;;;;;;;102.13;49.80;;;;;;;;;;5040526;28;20048;-91
2022/11/14 19:08:30;;;;;;;111.55;54.00;;;;;;;;;;5027360;28;20068;-91
2022/11/14 19:14:18;;;;;;;76.75;40.80;;;;;;;;;;5047874;28;20036;-92
2022/11/14 19:16:50;;;;;;;91.80;46.92;;;;;;;;;;5045626;28;20033;-91
2022/11/14 19:19:16;;;;;;;83.57;44.80;;;;;;;;;;5038410;28;20022;-91
2022/11/14 19:22:36;;;;;;;93.93;47.88;;;;;;;;;;5047048;28;20029;-91
2022/11/14 19:25:11;;;;;;;89.72;46.30;;;;;;;;;;4952764;28;20027;-92
2022/11/14 19:30:36;;;;;;;100.68;49.45;;;;;;;;;;6037574;23;20106;-95
2022/11/14 19:33:07;;;;;;;87.85;44.78;;;;;;;;;;5083536;28;20012;-92
2022/11/14 19:35:37;;;;;;;77.10;41.72;;;;;;;;;;5046380;28;20106;-89
2022/11/14 19:38:09;;;;;;;85.32;43.97;;;;;;;;;;5068781;28;20039;-91
2022/11/14 19:46:16;;;;;;;64.93;36.78;;;;;;;;;;5074430;28;20068;-91
2022/11/14 19:48:45;;;;;;;82.95;44.42;;;;;;;;;;5056829;28;20029;-90
2022/11/14 19:53:48;;;;;;;141.95;65.85;;;;;;;;;;5085821;28;20025;-94
2022/11/14 19:56:36;;;;;;;117.80;57.67;;;;;;;;;;5070456;28;20015;-89
2022/11/14 19:59:04;;;;;;;171.73;83.50;;;;;;;;;;5071414;28;20043;-89
2022/11/14 20:01:31;;;;;;;106.13;56.58;;;;;;;;;;5055627;28;20037;-90
2022/11/14 20:04:07;;;;;;;112.82;59.50;;;;;;;;;;5065415;28;20020;-96
2022/11/14 20:06:34;;;;;;;97.05;52.28;;;;;;;;;;5044763;28;20066;-90
2022/11/14 20:09:01;;;;;;;103.85;55.03;;;;;;;;;;5058672;28;20021;-92
2022/11/14 20:11:29;;;;;;;99.03;54.97;;;;;;;;;;5059895;28;20050;-93
2022/11/14 20:13:56;;;;;;;85.75;47.08;;;;;;;;;;5059258;28;20084;-92
2022/11/14 20:16:23;;;;;;;77.68;43.80;;;;;;;;;;5058219;28;20025;-91
2022/11/14 20:18:52;;;;;;;78.47;44.72;;;;;;;;;;5058965;28;20056;-92
2022/11/14 20:21:25;;;;;;;80.47;43.63;;;;;;;;;;5058651;28;20051;-95
2022/11/14 20:23:53;;;;;;;88.50;48.05;;;;;;;;;;5058852;28;20021;-92
2022/11/14 20:26:20;;;;;;;70.78;41.08;;;;;;;;;;5060639;28;20045;-93
2022/11/14 20:31:23;;;;;;;131.60;60.55;;;;;;;;;;5177083;22;20075;-93
2022/11/14 20:33:50;;;;;;;82.28;44.25;;;;;;;;;;5056260;28;20033;-91
2022/11/14 20:36:18;;;;;;;73.40;41.80;;;;;;;;;;5058490;28;20613;-91
2022/11/14 20:38:44;;;;;;;95.80;52.00;;;;;;;;;;5056751;28;20031;-93
2022/11/14 20:41:11;;;;;;;83.63;43.72;;;;;;;;;;5058625;28;20025;-92
2022/11/14 20:43:44;;;;;;;77.28;41.90;;;;;;;;;;5055552;28;20051;-93
2022/11/14 20:46:13;;;;;;;75.55;40.33;;;;;;;;;;5057787;28;20118;-93
2022/11/14 20:48:43;;;;;;;101.35;50.97;;;;;;;;;;5054539;28;20469;-95
2022/11/14 20:51:23;;;;;;;78.50;41.55;;;;;;;;;;5056025;28;20366;-93
2022/11/14 20:54:17;;;;;;;65.75;37.38;;;;;;;;;;5055913;28;20021;-94
2022/11/14 20:56:43;;;;;;;;;;;;;;;;;;5059044;28;20473;-93
2022/11/14 20:59:09;;;;;;;58.10;32.33;;;;;;;;;;5057236;28;19911;-92
2022/11/14 21:01:35;;;;;;;55.40;31.25;;;;;;;;;;5060291;28;20547;-95
2022/11/14 21:04:16;;;;;;;56.15;31.38;;;;;;;;;;5061433;28;20059;-95
2022/11/14 21:06:45;;;;;;;78.18;40.47;;;;;;;;;;5055869;28;20079;-91
2022/11/14 21:12:24;;;;;;;60.42;33.05;;;;;;;;;;5058006;28;20039;-91
2022/11/14 21:14:56;;;;;;;49.28;28.38;;;;;;;;;;5059357;28;20017;-92
2022/11/14 21:20:10;;;;;;;58.03;31.00;;;;;;;;;;5640172;23;20075;-91
2022/11/14 21:22:36;;;;;;;118.32;58.83;;;;;;;;;;5063894;28;20393;-91
2022/11/14 21:25:35;;;;;;;84.68;45.15;;;;;;;;;;5066724;28;20127;-91
2022/11/14 21:28:01;;;;;;;76.38;40.88;;;;;;;;;;5107744;22;20056;-91
2022/11/14 21:30:30;;;;;;;82.43;43.42;;;;;;;;;;5042515;28;20060;-91
2022/11/14 21:32:59;;;;;;;86.57;43.63;;;;;;;;;;5046081;28;20033;-93
2022/11/14 21:35:43;;;;;;;115.22;57.78;;;;;;;;;;5044782;28;20010;-93
2022/11/14 21:40:52;;;;;;;85.70;44.42;;;;;;;;;;5118895;23;20069;-95
2022/11/14 21:43:34;;;;;;;98.07;51.10;;;;;;;;;;5039958;28;20028;-95
2022/11/14 21:46:07;;;;;;;82.40;43.67;;;;;;;;;;5041634;28;20171;-96
2022/11/14 21:48:37;;;;;;;80.80;43.05;;;;;;;;;;5041824;28;20032;-93
2022/11/14 21:51:23;;;;;;;84.47;46.67;;;;;;;;;;5039635;28;20029;-94
2022/11/14 21:54:08;;;;;;;73.45;42.20;;;;;;;;;;5038902;28;20038;-95
2022/11/14 21:56:37;;;;;;;76.85;43.55;;;;;;;;;;5037862;28;20022;-94
2022/11/14 21:59:11;;;;;;;102.57;51.00;;;;;;;;;;5039252;28;20030;-94
2022/11/14 22:04:38;;;;;;;77.03;39.90;;;;;;;;;;5039799;28;20029;-94
2022/11/14 22:07:08;;;;;;;59.95;34.70;;;;;;;;;;5041470;28;20022;-94
2022/11/14 22:09:37;;;;;;;61.67;35.25;;;;;;;;;;5043763;28;20062;-95
2022/11/14 22:12:05;;;;;;;66.25;37.13;;;;;;;;;;5097106;23;20049;-95
2022/11/14 22:14:31;;;;;;;88.20;44.05;;;;;;;;;;5061692;28;20021;-95
2022/11/14 22:16:57;;;;;;;83.60;45.60;;;;;;;;;;5056540;28;20485;-95
2022/11/14 22:19:24;;;;;;;79.63;40.80;;;;;;;;;;5061800;28;20029;-95
2022/11/14 22:21:50;;;;;;;104.65;50.88;;;;;;;;;;5062710;28;20029;-95
2022/11/14 22:24:16;;;;;;;60.10;34.38;;;;;;;;;;5061419;28;20058;-94
2022/11/14 22:26:42;;;;;;;55.72;32.50;;;;;;;;;;5063391;28;20572;-93
2022/11/14 22:29:08;;;;;;;72.38;40.83;;;;;;;;;;5062823;28;20028;-95
2022/11/14 22:31:35;;;;;;;64.15;34.92;;;;;;;;;;5063556;28;20123;-95
2022/11/14 22:34:01;;;;;;;71.38;39.17;;;;;;;;;;5062600;28;20082;-94
2022/11/14 22:36:27;;;;;;;70.47;39.28;;;;;;;;;;5060491;28;20040;-96
2022/11/14 22:38:56;;;;;;;55.42;32.05;;;;;;;;;;5063091;28;20005;-94
2022/11/14 22:41:25;;;;;;;81.93;43.38;;;;;;;;;;5086600;23;20061;-93
2022/11/14 22:44:07;;;;;;;54.92;33.55;;;;;;;;;;5024267;28;20029;-95
2022/11/14 22:46:33;;;;;;;87.18;47.03;;;;;;;;;;5040898;28;20629;-95
2022/11/14 22:49:02;;;;;;;83.72;45.40;;;;;;;;;;5042628;28;20048;-96
2022/11/14 22:51:28;;;;;;;73.75;42.65;;;;;;;;;;5045671;28;20068;-96
2022/11/14 22:53:56;;;;;;;81.00;44.45;;;;;;;;;;5044844;28;20045;-96
2022/11/14 22:56:23;;;;;;;100.32;47.47;;;;;;;;;;5048466;28;20029;-95
2022/11/14 22:58:53;;;;;;;65.57;36.22;;;;;;;;;;5049145;28;20046;-95
2022/11/14 23:04:40;;;;;;;64.30;33.13;;;;;;;;;;5051490;28;20024;-95
2022/11/14 23:07:12;;;;;;;;;;;;;;;;;;5046322;28;20033;-95
2022/11/14 23:09:38;;;;;;;60.63;33.28;;;;;;;;;;5048174;28;19893;-95
2022/11/14 23:12:05;;;;;;;68.15;36.80;;;;;;;;;;5130438;23;20045;-95
2022/11/14 23:14:32;;;;;;;53.35;31.50;;;;;;;;;;5057333;28;20025;-95
2022/11/14 23:17:02;;;;;;;48.80;28.63;;;;;;;;;;5047315;28;20147;-95
2022/11/14 23:19:29;;;;;;;57.00;32.42;;;;;;;;;;5042291;28;20116;-96
2022/11/14 23:22:04;;;;;;;61.42;34.03;;;;;;;;;;5043979;28;20037;-96
2022/11/14 23:24:30;;;;;;;86.68;43.88;;;;;;;;;;5045311;28;20105;-95
2022/11/14 23:26:56;;;;;;;59.45;32.97;;;;;;;;;;5043054;28;20075;-95
2022/11/14 23:29:37;;;;;;;62.55;34.75;;;;;;;;;;5047080;28;20449;-95
2022/11/14 23:32:03;;;;;;;70.78;37.72;;;;;;;;;;5142133;23;20049;-95
2022/11/14 23:34:30;;;;;;;80.30;39.13;;;;;;;;;;5045094;28;20025;-93
2022/11/14 23:36:59;;;;;;;68.45;34.97;;;;;;;;;;5047245;28;20029;-95
2022/11/14 23:39:25;;;;;;;67.68;34.17;;;;;;;;;;5269870;22;20049;-95
2022/11/14 23:41:51;;;;;;;65.03;35.90;;;;;;;;;;5064733;28;20013;-94
2022/11/14 23:44:17;;;;;;;75.13;40.40;;;;;;;;;;5063890;28;20365;-96
2022/11/14 23:46:44;;;;;;;58.05;33.03;;;;;;;;;;5063343;28;20441;-94
2022/11/14 23:49:10;;;;;;;60.70;33.30;;;;;;;;;;5064525;28;20025;-95
2022/11/14 23:51:36;;;;;;;81.57;41.95;;;;;;;;;;5064917;28;20439;-95
2022/11/14 23:54:02;;;;;;;64.68;36.67;;;;;;;;;;5122972;23;20037;-95
2022/11/14 23:56:29;;;;;;;51.53;29.83;;;;;;;;;;5100054;22;20053;-95
